createdAt,value
2019-04-14T00:01:04.338Z,101992.98
2019-04-14T00:03:45.431Z,101992.13
2019-04-14T00:06:20.743Z,101996.97
2019-04-14T00:08:56.517Z,101997.39
2019-04-14T00:11:34.376Z,101999.16
2019-04-14T00:14:14.170Z,101992.06
2019-04-14T00:16:49.613Z,101996.53
2019-04-14T00:19:26.869Z,101993.38
2019-04-14T00:22:03.276Z,101986.72
2019-04-14T00:24:38.352Z,101994.30
2019-04-14T00:27:13.400Z,101992.91
2019-04-14T00:29:48.839Z,101995.56
2019-04-14T00:32:24.835Z,101990.73
2019-04-14T00:35:18.796Z,101988.55
2019-04-14T00:38:06.385Z,101986.73
2019-04-14T00:40:43.305Z,101990.73
2019-04-14T00:43:37.395Z,101997.41
2019-04-14T00:46:17.087Z,101986.80
2019-04-14T00:48:52.114Z,101989.47
2019-04-14T00:51:27.156Z,101983.72
2019-04-14T00:54:02.559Z,101982.87
2019-04-14T00:56:39.048Z,101985.48
2019-04-14T00:59:14.118Z,101981.97
2019-04-14T01:01:49.139Z,101991.70
2019-04-14T01:04:25.115Z,101981.05
2019-04-14T01:07:00.457Z,101976.17
2019-04-14T01:09:35.488Z,101985.49
2019-04-14T01:12:10.538Z,101985.48
2019-04-14T01:14:45.645Z,101989.04
2019-04-14T01:17:21.935Z,101986.83
2019-04-14T01:19:57.107Z,101990.38
2019-04-14T01:22:32.117Z,101994.88
2019-04-14T01:25:08.627Z,101990.89
2019-04-14T01:27:45.142Z,101992.70
2019-04-14T01:30:21.982Z,101984.30
2019-04-14T01:32:57.037Z,101986.91
2019-04-14T01:35:33.562Z,101990.02
2019-04-14T01:38:08.557Z,101991.44
2019-04-14T01:40:44.576Z,102002.09
2019-04-14T01:43:19.710Z,101995.02
2019-04-14T01:46:07.177Z,102000.30
2019-04-14T01:48:32.437Z,102000.34
2019-04-14T01:51:09.309Z,101998.60
2019-04-14T01:53:47.035Z,101999.95
2019-04-14T01:56:40.550Z,101995.09
2019-04-14T01:59:17.301Z,101999.95
2019-04-14T02:01:58.611Z,101998.19
2019-04-14T02:04:33.828Z,102004.84
2019-04-14T02:07:10.126Z,101998.60
2019-04-14T02:09:45.311Z,102002.17
2019-04-14T02:12:21.422Z,101997.33
2019-04-14T02:14:58.254Z,102001.80
2019-04-14T02:17:34.941Z,102002.72
2019-04-14T02:20:10.515Z,102008.48
2019-04-14T02:22:46.351Z,102008.53
2019-04-14T02:25:21.403Z,101999.22
2019-04-14T02:27:58.021Z,101999.70
2019-04-14T02:30:41.443Z,101998.42
2019-04-14T02:39:22.374Z,101999.33
2019-04-14T02:41:51.322Z,102002.00
2019-04-14T02:44:04.585Z,102001.57
2019-04-14T02:46:47.703Z,101996.73
2019-04-14T02:49:16.854Z,102002.06
2019-04-14T02:54:37.019Z,102004.72
2019-04-14T02:57:15.117Z,102000.30
2019-04-14T02:59:45.285Z,101995.45
2019-04-14T03:02:29.616Z,101996.77
2019-04-14T03:04:59.998Z,102001.25
2019-04-14T03:07:38.203Z,102005.24
2019-04-14T03:10:16.341Z,102002.16
2019-04-14T03:12:46.552Z,102003.06
2019-04-14T03:15:25.353Z,102002.20
2019-04-14T03:18:24.443Z,102000.02
2019-04-14T03:23:48.968Z,101999.58
2019-04-14T03:26:27.525Z,101996.50
2019-04-14T03:29:13.151Z,102008.47
2019-04-14T03:31:59.733Z,102005.38
2019-04-14T03:39:44.332Z,102006.28
2019-04-14T03:42:21.447Z,102003.62
2019-04-14T03:44:51.048Z,101997.44
2019-04-14T03:47:31.253Z,102004.09
2019-04-14T03:53:12.006Z,102002.72
2019-04-14T03:55:18.862Z,101998.73
2019-04-14T03:57:37.001Z,102000.53
2019-04-14T04:00:13.780Z,101998.30
2019-04-14T04:02:48.878Z,101992.55
2019-04-14T04:05:23.892Z,101994.78
2019-04-14T04:07:58.914Z,101992.16
2019-04-14T04:10:35.751Z,101993.92
2019-04-14T04:13:10.793Z,101990.36
2019-04-14T04:15:50.421Z,101994.78
2019-04-14T04:18:47.377Z,101998.81
2019-04-14T04:21:24.824Z,101997.02
2019-04-14T04:24:04.459Z,102003.66
2019-04-14T04:26:47.188Z,102004.09
2019-04-14T04:29:24.484Z,102005.89
2019-04-14T04:32:07.840Z,102005.85
2019-04-14T04:34:44.638Z,102006.75
2019-04-14T04:37:26.015Z,102002.33
2019-04-14T04:40:02.980Z,102013.87
2019-04-14T04:42:38.037Z,102002.77
2019-04-14T04:45:32.009Z,102018.72
2019-04-14T04:48:08.906Z,102012.50
2019-04-14T04:50:45.247Z,102018.25
2019-04-14T04:53:20.539Z,102014.69
2019-04-14T04:55:56.820Z,102007.61
2019-04-14T04:58:32.775Z,102017.39
2019-04-14T05:01:07.928Z,102013.83
2019-04-14T05:03:42.953Z,102019.07
2019-04-14T05:06:41.987Z,102018.68
2019-04-14T05:09:38.761Z,102020.44
2019-04-14T05:12:19.574Z,102020.48
2019-04-14T05:15:03.597Z,102021.84
2019-04-14T05:17:45.261Z,102027.16
2019-04-14T05:20:20.435Z,102031.62
2019-04-14T05:22:55.716Z,102032.95
2019-04-14T05:25:31.752Z,102035.61
2019-04-14T05:28:09.110Z,102038.70
2019-04-14T05:30:44.200Z,102034.71
2019-04-14T05:33:20.629Z,102039.56
2019-04-14T05:35:57.341Z,102032.02
2019-04-14T05:38:33.908Z,102034.64
2019-04-14T05:41:09.270Z,102043.48
2019-04-14T05:43:51.425Z,102038.16
2019-04-14T05:46:21.032Z,102025.30
2019-04-14T05:48:56.057Z,102042.50
2019-04-14T05:51:33.292Z,102039.45
2019-04-14T05:54:09.992Z,102044.77
2019-04-14T05:56:47.065Z,102050.47
2019-04-14T05:59:22.509Z,102053.14
2019-04-14T06:01:57.533Z,102056.66
2019-04-14T06:04:33.188Z,102061.98
2019-04-14T06:07:08.269Z,102058.84
2019-04-14T06:09:47.240Z,102056.66
2019-04-14T06:12:22.263Z,102055.38
2019-04-14T06:14:57.626Z,102058.93
2019-04-14T06:17:32.681Z,102062.49
2019-04-14T06:20:07.866Z,102058.97
2019-04-14T06:22:43.540Z,102059.44
2019-04-14T06:25:18.817Z,102059.91
2019-04-14T06:27:53.856Z,102063.44
2019-04-14T06:30:36.820Z,102063.00
2019-04-14T06:33:13.493Z,102058.97
2019-04-14T06:35:50.159Z,102057.17
2019-04-14T06:38:26.815Z,102059.44
2019-04-14T06:41:03.738Z,102064.77
2019-04-14T06:43:48.302Z,102066.99
2019-04-14T06:46:15.806Z,102062.10
2019-04-14T06:48:50.848Z,102061.63
2019-04-14T06:51:25.878Z,102060.30
2019-04-14T06:54:00.896Z,102067.81
2019-04-14T06:56:36.201Z,102068.28
2019-04-14T06:59:11.218Z,102067.81
2019-04-14T07:01:46.265Z,102082.02
2019-04-14T07:04:21.273Z,102072.31
2019-04-14T07:06:56.322Z,102074.94
2019-04-14T07:09:31.798Z,102078.49
2019-04-14T07:12:07.688Z,102082.02
2019-04-14T07:14:43.202Z,102078.03
2019-04-14T07:17:18.365Z,102085.97
2019-04-14T07:20:01.807Z,102082.41
2019-04-14T07:22:30.246Z,102081.05
2019-04-14T07:25:05.940Z,102084.55
2019-04-14T07:27:40.974Z,102084.52
2019-04-14T07:30:37.067Z,102084.94
2019-04-14T07:33:33.161Z,102075.15
2019-04-14T07:36:19.707Z,102083.98
2019-04-14T07:39:14.217Z,102087.08
2019-04-14T07:42:07.424Z,102085.27
2019-04-14T07:45:01.698Z,102086.97
2019-04-14T07:47:39.931Z,102087.77
2019-04-14T07:50:30.177Z,102084.98
2019-04-14T07:53:23.385Z,102088.48
2019-04-14T07:56:15.256Z,102088.85
2019-04-14T07:59:09.521Z,102091.02
2019-04-14T08:01:46.487Z,102091.01
2019-04-14T08:04:23.601Z,102093.61
2019-04-14T08:06:59.257Z,102092.29
2019-04-14T08:09:35.626Z,102098.09
2019-04-14T08:12:15.739Z,102094.95
2019-04-14T08:14:50.999Z,102092.35
2019-04-14T08:17:26.347Z,102094.16
2019-04-14T08:20:01.435Z,102092.77
2019-04-14T08:22:36.711Z,102097.59
2019-04-14T08:25:12.185Z,102100.68
2019-04-14T08:27:52.385Z,102097.06
2019-04-14T08:30:27.564Z,102098.29
2019-04-14T08:33:03.246Z,102099.57
2019-04-14T08:35:39.400Z,102103.59
2019-04-14T08:38:15.019Z,102104.00
2019-04-14T08:40:50.086Z,102092.91
2019-04-14T08:43:26.763Z,102105.27
2019-04-14T08:46:20.939Z,102104.78
2019-04-14T08:48:57.809Z,102113.19
2019-04-14T08:51:41.028Z,102111.41
2019-04-14T08:54:17.695Z,102117.19
2019-04-14T08:57:00.508Z,102111.84
2019-04-14T08:59:50.397Z,102110.45
2019-04-14T09:02:40.172Z,102106.44
2019-04-14T09:05:16.845Z,102104.58
2019-04-14T09:08:07.030Z,102100.83
2019-04-14T09:10:43.704Z,102102.54
2019-04-14T09:13:19.052Z,102109.03
2019-04-14T09:15:54.203Z,102105.66
2019-04-14T09:18:29.193Z,102102.23
2019-04-14T09:21:04.254Z,102100.27
2019-04-14T09:23:39.593Z,102101.09
2019-04-14T09:26:14.933Z,102097.70
2019-04-14T09:28:50.044Z,102100.35
2019-04-14T09:31:25.065Z,102101.19
2019-04-14T09:34:00.185Z,102100.79
2019-04-14T09:36:37.125Z,102096.69
2019-04-14T09:39:13.070Z,102106.95
2019-04-14T09:41:48.733Z,102112.78
2019-04-14T09:44:24.977Z,102117.11
2019-04-14T09:47:00.084Z,102121.25
2019-04-14T09:49:35.380Z,102121.25
2019-04-14T09:52:10.718Z,102128.02
2019-04-14T09:54:46.072Z,102124.80
2019-04-14T09:57:21.431Z,102133.80
2019-04-14T09:59:56.767Z,102132.56
2019-04-14T10:02:32.092Z,102126.77
2019-04-14T10:05:07.582Z,102122.83
2019-04-14T10:07:42.989Z,102126.67
2019-04-14T10:10:18.361Z,102126.67
2019-04-14T10:12:53.644Z,102127.95
2019-04-14T10:15:28.690Z,102127.20
2019-04-14T10:18:03.759Z,102122.28
2019-04-14T10:20:38.855Z,102126.38
2019-04-14T10:23:13.877Z,102137.92
2019-04-14T10:25:48.910Z,102132.96
2019-04-14T10:28:23.951Z,102132.53
2019-04-14T10:30:58.976Z,102138.40
2019-04-14T10:33:34.356Z,102145.02
2019-04-14T10:36:09.709Z,102138.31
2019-04-14T10:38:44.747Z,102139.20
2019-04-14T10:41:19.780Z,102140.88
2019-04-14T10:43:54.861Z,102139.03
2019-04-14T10:46:30.260Z,102135.04
2019-04-14T10:49:05.596Z,102139.02
2019-04-14T10:51:40.641Z,102145.98
2019-04-14T10:54:15.937Z,102158.41
2019-04-14T10:56:50.982Z,102155.25
2019-04-14T10:59:27.489Z,102152.66
2019-04-14T11:02:06.301Z,102159.77
2019-04-14T11:04:41.701Z,102157.52
2019-04-14T11:07:21.570Z,102162.83
2019-04-14T11:09:56.600Z,102156.48
2019-04-14T11:12:31.985Z,102156.42
2019-04-14T11:15:07.952Z,102153.95
2019-04-14T11:17:42.992Z,102145.28
2019-04-14T11:20:18.036Z,102147.83
2019-04-14T11:23:03.294Z,102147.72
2019-04-14T11:25:30.741Z,102146.25
2019-04-14T11:28:05.839Z,102145.18
2019-04-14T11:30:40.941Z,102132.30
2019-04-14T11:33:17.608Z,102140.53
2019-04-14T11:35:54.294Z,102135.45
2019-04-14T11:38:30.967Z,102134.03
2019-04-14T11:41:14.256Z,102136.25
2019-04-14T11:43:49.288Z,102129.84
2019-04-14T11:46:24.628Z,102137.50
2019-04-14T11:48:59.694Z,102124.91
2019-04-14T11:51:34.731Z,102126.56
2019-04-14T11:54:11.336Z,102127.63
2019-04-14T11:56:46.347Z,102126.41
2019-04-14T11:59:23.010Z,102129.42
2019-04-14T12:02:05.931Z,102131.23
2019-04-14T12:04:45.671Z,102130.98
2019-04-14T12:07:25.824Z,102132.30
2019-04-14T12:10:02.787Z,102124.61
2019-04-14T12:12:38.152Z,102124.16
2019-04-14T12:15:16.589Z,102117.13
2019-04-14T12:17:52.017Z,102107.10
2019-04-14T12:20:27.049Z,102112.41
2019-04-14T12:23:02.472Z,102109.63
2019-04-14T12:25:37.918Z,102111.73
2019-04-14T12:28:13.580Z,102113.81
2019-04-14T12:30:48.942Z,102123.11
2019-04-14T12:33:24.113Z,102111.39
2019-04-14T12:36:01.138Z,102112.24
2019-04-14T12:38:36.685Z,102111.32
2019-04-14T12:41:13.633Z,102108.00
2019-04-14T12:43:53.924Z,102113.15
2019-04-14T12:46:33.672Z,102116.92
2019-04-14T12:49:10.726Z,102115.09
2019-04-14T12:51:57.486Z,102111.17
2019-04-14T12:54:33.768Z,102117.02
2019-04-14T12:57:09.181Z,102118.92
2019-04-14T12:59:44.231Z,102117.63
2019-04-14T13:02:24.258Z,102116.66
2019-04-14T13:04:59.598Z,102108.03
2019-04-14T13:07:36.866Z,102105.13
2019-04-14T13:10:11.931Z,102105.75
2019-04-14T13:12:46.982Z,102105.38
2019-04-14T13:15:22.408Z,102109.56
2019-04-14T13:17:57.951Z,102099.94
2019-04-14T13:20:33.292Z,102106.57
2019-04-14T13:23:14.883Z,102097.35
2019-04-14T13:25:45.663Z,102098.98
2019-04-14T13:28:21.188Z,102091.22
2019-04-14T13:30:57.278Z,102091.03
2019-04-14T13:33:32.501Z,102085.55
2019-04-14T13:36:07.664Z,102081.39
2019-04-14T13:38:43.011Z,102083.03
2019-04-14T13:41:19.898Z,102079.41
2019-04-14T13:43:56.069Z,102081.88
2019-04-14T13:46:32.590Z,102078.31
2019-04-14T13:49:10.076Z,102074.78
2019-04-14T13:51:45.261Z,102074.73
2019-04-14T13:54:21.241Z,102078.72
2019-04-14T13:56:56.277Z,102071.27
2019-04-14T13:59:32.842Z,102081.81
2019-04-14T14:02:08.204Z,102071.49
2019-04-14T14:04:43.647Z,102068.09
2019-04-14T14:07:18.680Z,102068.98
2019-04-14T14:09:57.115Z,102073.03
2019-04-14T14:12:36.860Z,102081.39
2019-04-14T14:15:13.930Z,102071.75
2019-04-14T14:17:51.143Z,102074.52
2019-04-14T14:20:44.424Z,102077.48
2019-04-14T14:23:27.786Z,102071.84
2019-04-14T14:26:04.116Z,102067.69
2019-04-14T14:28:39.588Z,102067.30
2019-04-14T14:31:18.493Z,102071.52
2019-04-14T14:33:54.321Z,102064.91
2019-04-14T14:36:29.579Z,102065.42
2019-04-14T14:39:07.748Z,102062.70
2019-04-14T14:41:43.591Z,102069.87
2019-04-14T14:44:20.056Z,102074.22
2019-04-14T14:46:56.736Z,102072.00
2019-04-14T14:49:51.039Z,102068.81
2019-04-14T14:52:27.399Z,102075.86
2019-04-14T14:55:03.661Z,102070.69
2019-04-14T14:57:38.999Z,102066.83
2019-04-14T15:00:22.364Z,102068.18
2019-04-14T15:02:57.493Z,102074.02
2019-04-14T15:05:32.690Z,102067.09
2019-04-14T15:08:07.951Z,102069.57
2019-04-14T15:10:45.723Z,102061.36
2019-04-14T15:13:21.114Z,102071.08
2019-04-14T15:15:56.214Z,102068.38
2019-04-14T15:18:31.408Z,102064.83
2019-04-14T15:21:06.554Z,102072.16
2019-04-14T15:23:41.960Z,102069.80
2019-04-14T15:26:17.131Z,102084.84
2019-04-14T15:28:52.471Z,102079.89
2019-04-14T15:31:27.807Z,102089.17
2019-04-14T15:34:03.400Z,102081.88
2019-04-14T15:36:39.080Z,102088.44
2019-04-14T15:39:14.836Z,102088.55
2019-04-14T15:41:50.378Z,102089.67
2019-04-14T15:44:25.436Z,102091.06
2019-04-14T15:47:00.751Z,102091.52
2019-04-14T15:49:38.050Z,102091.96
2019-04-14T15:52:13.373Z,102098.27
2019-04-14T15:54:48.722Z,102095.11
2019-04-14T15:57:38.301Z,102098.45
2019-04-14T16:00:15.065Z,102097.61
2019-04-14T16:03:09.562Z,102100.63
2019-04-14T16:06:06.143Z,102092.72
2019-04-14T16:08:49.654Z,102085.67
2019-04-14T16:11:40.079Z,102085.67
2019-04-14T16:14:17.017Z,102106.45
2019-04-14T16:17:06.868Z,102107.78
2019-04-14T16:19:54.668Z,102105.34
2019-04-14T16:22:29.726Z,102105.06
2019-04-14T16:25:06.228Z,102105.06
2019-04-14T16:27:49.055Z,102112.41
2019-04-14T16:30:44.579Z,102106.00
2019-04-14T16:33:24.378Z,102110.08
2019-04-14T16:35:59.797Z,102108.12
2019-04-14T16:38:35.103Z,102114.68
2019-04-14T16:41:10.475Z,102110.69
2019-04-14T16:43:59.420Z,102111.98
2019-04-14T16:47:08.400Z,102107.27
2019-04-14T16:49:50.332Z,102111.70
2019-04-14T16:52:27.418Z,102105.91
2019-04-14T16:55:22.454Z,102105.51
2019-04-14T16:58:02.289Z,102103.23
2019-04-14T17:00:39.584Z,102093.89
2019-04-14T17:03:16.173Z,102096.95
2019-04-14T17:05:51.308Z,102098.91
2019-04-14T17:08:27.794Z,102097.35
2019-04-14T17:11:03.451Z,102098.81
2019-04-14T17:13:42.391Z,102093.55
2019-04-14T17:16:22.713Z,102099.38
2019-04-14T17:19:32.425Z,102104.77
2019-04-14T17:22:15.397Z,102111.64
2019-04-14T17:25:10.514Z,102123.41
2019-04-14T17:28:04.794Z,102119.04
2019-04-14T17:30:54.773Z,102119.64
2019-04-14T17:33:34.546Z,102117.96
2019-04-14T17:36:28.538Z,102118.22
2019-04-14T17:39:11.594Z,102114.83
2019-04-14T17:41:49.807Z,102117.78
2019-04-14T17:44:28.438Z,102123.75
2019-04-14T17:47:17.927Z,102126.17
2019-04-14T17:50:41.010Z,102124.08
2019-04-14T17:53:26.564Z,102131.31
2019-04-14T17:56:03.263Z,102134.94
2019-04-14T17:58:53.360Z,102131.80
2019-04-14T18:01:30.349Z,102132.28
2019-04-14T18:04:25.029Z,102137.77
2019-04-14T18:07:13.378Z,102145.17
2019-04-14T18:09:59.219Z,102139.64
2019-04-14T18:12:42.169Z,102141.16
2019-04-14T18:15:29.175Z,102144.01
2019-04-14T18:18:17.031Z,102145.55
2019-04-14T18:20:54.761Z,102154.77
2019-04-14T18:23:31.040Z,102153.08
2019-04-14T18:26:09.458Z,102163.97
2019-04-14T18:28:56.272Z,102154.77
2019-04-14T18:31:39.815Z,102168.38
2019-04-14T18:34:16.591Z,102169.78
2019-04-14T18:37:07.426Z,102174.47
2019-04-14T18:39:44.434Z,102179.92
2019-04-14T18:42:33.929Z,102181.33
2019-04-14T18:45:28.883Z,102181.95
2019-04-14T18:48:21.682Z,102185.70
2019-04-14T18:50:58.636Z,102186.70
2019-04-14T18:53:45.699Z,102185.48
2019-04-14T18:56:41.021Z,102194.51
2019-04-14T18:59:29.641Z,102192.91
2019-04-14T19:02:05.250Z,102189.84
2019-04-14T19:04:40.799Z,102196.60
2019-04-14T19:07:16.238Z,102197.41
2019-04-14T19:09:51.663Z,102200.56
2019-04-14T19:12:34.957Z,102204.14
2019-04-14T19:15:14.155Z,102208.16
2019-04-14T19:17:51.227Z,102207.33
2019-04-14T19:20:26.612Z,102213.22
2019-04-14T19:23:01.767Z,102206.56
2019-04-14T19:25:38.268Z,102209.75
2019-04-14T19:28:14.489Z,102218.65
2019-04-14T19:30:50.319Z,102224.09
2019-04-14T19:33:25.540Z,102228.51
2019-04-14T19:36:01.027Z,102228.95
2019-04-14T19:38:42.875Z,102234.79
2019-04-14T19:41:18.526Z,102236.20
2019-04-14T19:43:54.511Z,102239.91
2019-04-14T19:46:29.835Z,102237.41
2019-04-14T19:49:05.161Z,102232.09
2019-04-14T19:51:40.737Z,102236.66
2019-04-14T19:54:15.908Z,102239.81
2019-04-14T19:56:53.440Z,102242.14
2019-04-14T19:59:31.541Z,102246.19
2019-04-14T20:02:06.750Z,102247.64
2019-04-14T20:04:42.871Z,102256.66
2019-04-14T20:07:18.250Z,102254.00
2019-04-14T20:09:53.316Z,102259.41
2019-04-14T20:12:30.158Z,102251.42
2019-04-14T20:15:08.106Z,102249.70
2019-04-14T20:17:44.908Z,102258.67
2019-04-14T20:20:43.741Z,102254.73
2019-04-14T20:23:34.373Z,102265.14
2019-04-14T20:26:20.657Z,102265.14
2019-04-14T20:29:01.507Z,102259.83
2019-04-14T20:31:45.032Z,102263.87
2019-04-14T20:34:20.116Z,102267.45
2019-04-14T20:36:55.521Z,102270.53
2019-04-14T20:39:31.013Z,102272.27
2019-04-14T20:42:07.037Z,102270.40
2019-04-14T20:44:43.068Z,102278.72
2019-04-14T20:47:18.461Z,102260.13
2019-04-14T20:49:53.473Z,102260.13
2019-04-14T20:52:28.542Z,102272.98
2019-04-14T20:55:05.488Z,102274.81
2019-04-14T20:57:40.928Z,102274.86
2019-04-14T21:00:20.800Z,102281.03
2019-04-14T21:03:12.365Z,102284.20
2019-04-14T21:05:58.647Z,102285.11
2019-04-14T21:08:52.873Z,102294.50
2019-04-14T21:11:29.644Z,102289.67
2019-04-14T21:14:09.406Z,102294.20
2019-04-14T21:17:01.162Z,102296.09
2019-04-14T21:19:37.871Z,102302.48
2019-04-14T21:22:32.029Z,102298.09
2019-04-14T21:25:09.755Z,102300.91
2019-04-14T21:27:49.526Z,102311.27
2019-04-14T21:30:43.690Z,102309.52
2019-04-14T21:33:21.618Z,102311.80
2019-04-14T21:35:58.318Z,102312.73
2019-04-14T21:38:55.517Z,102316.34
2019-04-14T21:41:32.638Z,102313.27
2019-04-14T21:44:07.653Z,102317.26
2019-04-14T21:46:43.007Z,102323.52
2019-04-14T21:49:18.028Z,102324.97
2019-04-14T21:51:54.760Z,102331.67
2019-04-14T21:54:29.822Z,102336.68
2019-04-14T21:57:25.686Z,102342.49
2019-04-14T22:00:06.461Z,102339.05
2019-04-14T22:03:02.290Z,102343.92
2019-04-14T22:05:48.794Z,102342.64
2019-04-14T22:08:32.623Z,102345.83
2019-04-14T22:11:09.368Z,102354.80
2019-04-14T22:13:46.374Z,102362.47
2019-04-14T22:16:21.482Z,102362.54
2019-04-14T22:18:56.492Z,102368.33
2019-04-14T22:21:31.523Z,102363.50
2019-04-14T22:24:06.919Z,102366.24
2019-04-14T22:26:41.979Z,102369.83
2019-04-14T22:29:16.992Z,102374.68
2019-04-14T22:31:52.437Z,102378.27
2019-04-14T22:34:27.805Z,102378.75
2019-04-14T22:37:02.851Z,102386.33
2019-04-14T22:39:39.306Z,102386.79
2019-04-14T22:42:14.594Z,102384.12
2019-04-14T22:44:49.605Z,102387.70
2019-04-14T22:47:24.644Z,102388.62
2019-04-14T22:49:59.650Z,102392.27
2019-04-14T22:52:34.970Z,102387.77
2019-04-14T22:55:10.064Z,102394.92
2019-04-14T22:57:45.088Z,102398.52
2019-04-14T23:00:41.183Z,102394.09
2019-04-14T23:03:18.226Z,102396.78
2019-04-14T23:05:55.248Z,102410.59
2019-04-14T23:08:38.594Z,102400.36
2019-04-14T23:11:21.506Z,102402.16
2019-04-14T23:14:01.115Z,102412.80
2019-04-14T23:16:55.297Z,102413.77
2019-04-14T23:19:49.456Z,102416.03
2019-04-14T23:22:38.834Z,102415.66
2019-04-14T23:25:13.901Z,102422.39
2019-04-14T23:27:48.924Z,102423.73
2019-04-14T23:30:23.960Z,102427.30
2019-04-14T23:32:58.992Z,102426.45
2019-04-14T23:35:34.359Z,102423.82
2019-04-14T23:38:09.388Z,102415.81
2019-04-14T23:40:45.656Z,102422.92
2019-04-14T23:43:20.752Z,102422.97
2019-04-14T23:45:56.963Z,102424.78
2019-04-14T23:48:31.970Z,102427.88
2019-04-14T23:51:07.003Z,102427.92
2019-04-14T23:53:42.020Z,102423.49
2019-04-14T23:56:17.054Z,102424.83
2019-04-14T23:58:52.073Z,102425.30
